sensor_id;sensor_type;location;lat;lon;timestamp;temperature;humidity
74359;DHT22;62792;46.236;6.040;2022-11-15T00:01:08;21.80;56.30
74359;DHT22;62792;46.236;6.040;2022-11-15T00:06:11;21.80;56.30
74359;DHT22;62792;46.236;6.040;2022-11-15T00:11:14;21.80;56.40
74359;DHT22;62792;46.236;6.040;2022-11-15T00:16:18;21.80;56.20
74359;DHT22;62792;46.236;6.040;2022-11-15T00:21:21;21.80;56.20
74359;DHT22;62792;46.236;6.040;2022-11-15T00:26:23;21.80;56.30
74359;DHT22;62792;46.236;6.040;2022-11-15T00:31:28;21.80;56.10
74359;DHT22;62792;46.236;6.040;2022-11-15T00:36:32;21.80;56.40
74359;DHT22;62792;46.236;6.040;2022-11-15T00:41:35;21.80;56.30
74359;DHT22;62792;46.236;6.040;2022-11-15T00:46:39;21.80;56.20
74359;DHT22;62792;46.236;6.040;2022-11-15T00:51:41;21.80;56.20
74359;DHT22;62792;46.236;6.040;2022-11-15T00:56:44;21.70;56.40
74359;DHT22;62792;46.236;6.040;2022-11-15T01:01:48;21.80;56.10
74359;DHT22;62792;46.236;6.040;2022-11-15T01:06:51;21.80;56.40
74359;DHT22;62792;46.236;6.040;2022-11-15T01:11:53;21.80;56.30
74359;DHT22;62792;46.236;6.040;2022-11-15T01:16:57;21.80;56.30
74359;DHT22;62792;46.236;6.040;2022-11-15T01:22:00;21.80;56.40
74359;DHT22;62792;46.236;6.040;2022-11-15T01:27:03;21.70;56.40
74359;DHT22;62792;46.236;6.040;2022-11-15T01:32:07;21.70;56.50
74359;DHT22;62792;46.236;6.040;2022-11-15T01:37:09;21.70;56.50
74359;DHT22;62792;46.236;6.040;2022-11-15T01:42:12;21.70;56.50
74359;DHT22;62792;46.236;6.040;2022-11-15T01:47:17;21.70;56.60
74359;DHT22;62792;46.236;6.040;2022-11-15T01:52:22;21.70;56.60
74359;DHT22;62792;46.236;6.040;2022-11-15T01:57:26;21.70;56.50
74359;DHT22;62792;46.236;6.040;2022-11-15T02:02:31;21.80;56.70
74359;DHT22;62792;46.236;6.040;2022-11-15T02:07:34;21.70;56.50
74359;DHT22;62792;46.236;6.040;2022-11-15T02:12:37;21.70;56.40
74359;DHT22;62792;46.236;6.040;2022-11-15T02:17:46;21.70;56.40
74359;DHT22;62792;46.236;6.040;2022-11-15T02:23:05;21.80;56.40
74359;DHT22;62792;46.236;6.040;2022-11-15T02:28:26;21.80;56.60
74359;DHT22;62792;46.236;6.040;2022-11-15T02:33:35;21.70;56.60
74359;DHT22;62792;46.236;6.040;2022-11-15T02:38:43;21.70;56.60
74359;DHT22;62792;46.236;6.040;2022-11-15T02:43:50;21.80;56.60
74359;DHT22;62792;46.236;6.040;2022-11-15T02:49:00;21.70;56.70
74359;DHT22;62792;46.236;6.040;2022-11-15T02:54:03;21.70;56.80
74359;DHT22;62792;46.236;6.040;2022-11-15T02:59:19;21.70;56.70
74359;DHT22;62792;46.236;6.040;2022-11-15T03:04:29;21.70;56.60
74359;DHT22;62792;46.236;6.040;2022-11-15T03:09:39;21.70;56.60
74359;DHT22;62792;46.236;6.040;2022-11-15T03:14:46;21.80;56.60
74359;DHT22;62792;46.236;6.040;2022-11-15T03:19:54;21.60;56.60
74359;DHT22;62792;46.236;6.040;2022-11-15T03:24:59;21.70;56.50
74359;DHT22;62792;46.236;6.040;2022-11-15T03:30:04;21.70;56.50
74359;DHT22;62792;46.236;6.040;2022-11-15T03:35:09;21.70;56.60
74359;DHT22;62792;46.236;6.040;2022-11-15T03:40:14;21.80;56.60
74359;DHT22;62792;46.236;6.040;2022-11-15T03:45:18;21.60;56.90
74359;DHT22;62792;46.236;6.040;2022-11-15T03:50:22;21.60;56.90
74359;DHT22;62792;46.236;6.040;2022-11-15T03:55:26;21.70;56.80
74359;DHT22;62792;46.236;6.040;2022-11-15T04:00:29;21.70;56.90
74359;DHT22;62792;46.236;6.040;2022-11-15T04:05:33;21.70;56.80
74359;DHT22;62792;46.236;6.040;2022-11-15T04:10:36;21.70;57.00
74359;DHT22;62792;46.236;6.040;2022-11-15T04:15:38;21.60;57.00
74359;DHT22;62792;46.236;6.040;2022-11-15T04:20:42;21.70;57.10
74359;DHT22;62792;46.236;6.040;2022-11-15T04:26:04;21.70;56.90
74359;DHT22;62792;46.236;6.040;2022-11-15T04:31:07;21.70;56.90
74359;DHT22;62792;46.236;6.040;2022-11-15T04:36:11;21.70;57.00
74359;DHT22;62792;46.236;6.040;2022-11-15T04:41:39;21.70;56.80
74359;DHT22;62792;46.236;6.040;2022-11-15T04:46:42;21.70;56.80
74359;DHT22;62792;46.236;6.040;2022-11-15T04:51:46;21.60;57.00
74359;DHT22;62792;46.236;6.040;2022-11-15T04:56:49;21.60;56.90
74359;DHT22;62792;46.236;6.040;2022-11-15T05:02:02;21.70;57.10
74359;DHT22;62792;46.236;6.040;2022-11-15T05:07:07;21.60;57.00
74359;DHT22;62792;46.236;6.040;2022-11-15T05:12:10;21.70;57.00
74359;DHT22;62792;46.236;6.040;2022-11-15T05:17:12;21.60;56.90
74359;DHT22;62792;46.236;6.040;2022-11-15T05:22:16;21.60;56.90
74359;DHT22;62792;46.236;6.040;2022-11-15T05:27:20;21.60;57.00
74359;DHT22;62792;46.236;6.040;2022-11-15T05:32:23;21.60;57.00
74359;DHT22;62792;46.236;6.040;2022-11-15T05:37:27;21.60;57.00
74359;DHT22;62792;46.236;6.040;2022-11-15T05:42:30;21.60;57.10
74359;DHT22;62792;46.236;6.040;2022-11-15T05:47:33;21.60;56.90
74359;DHT22;62792;46.236;6.040;2022-11-15T05:52:38;21.60;57.20
74359;DHT22;62792;46.236;6.040;2022-11-15T05:57:40;21.60;57.20
74359;DHT22;62792;46.236;6.040;2022-11-15T06:02:43;21.50;57.30
74359;DHT22;62792;46.236;6.040;2022-11-15T06:07:47;21.60;57.30
74359;DHT22;62792;46.236;6.040;2022-11-15T06:12:55;21.60;57.00
74359;DHT22;62792;46.236;6.040;2022-11-15T06:17:58;21.70;56.90
74359;DHT22;62792;46.236;6.040;2022-11-15T06:23:03;21.70;57.20
74359;DHT22;62792;46.236;6.040;2022-11-15T06:28:05;21.70;56.90
74359;DHT22;62792;46.236;6.040;2022-11-15T06:33:08;21.70;57.00
74359;DHT22;62792;46.236;6.040;2022-11-15T06:38:12;21.70;57.00
74359;DHT22;62792;46.236;6.040;2022-11-15T06:43:15;21.80;57.00
74359;DHT22;62792;46.236;6.040;2022-11-15T06:48:17;21.80;57.30
74359;DHT22;62792;46.236;6.040;2022-11-15T06:53:21;21.70;56.90
74359;DHT22;62792;46.236;6.040;2022-11-15T06:58:24;21.80;57.20
74359;DHT22;62792;46.236;6.040;2022-11-15T07:03:27;21.80;57.10
74359;DHT22;62792;46.236;6.040;2022-11-15T07:08:32;21.80;57.00
74359;DHT22;62792;46.236;6.040;2022-11-15T07:13:35;21.90;57.00
74359;DHT22;62792;46.236;6.040;2022-11-15T07:18:39;21.80;57.10
74359;DHT22;62792;46.236;6.040;2022-11-15T07:23:43;21.80;57.00
74359;DHT22;62792;46.236;6.040;2022-11-15T07:28:46;21.80;57.10
74359;DHT22;62792;46.236;6.040;2022-11-15T07:33:49;21.80;56.90
74359;DHT22;62792;46.236;6.040;2022-11-15T07:38:52;21.80;57.20
74359;DHT22;62792;46.236;6.040;2022-11-15T07:43:55;22.00;57.10
74359;DHT22;62792;46.236;6.040;2022-11-15T07:48:58;21.90;57.20
74359;DHT22;62792;46.236;6.040;2022-11-15T07:54:02;21.90;58.60
74359;DHT22;62792;46.236;6.040;2022-11-15T07:59:05;22.10;59.60
74359;DHT22;62792;46.236;6.040;2022-11-15T08:04:09;22.10;60.00
74359;DHT22;62792;46.236;6.040;2022-11-15T08:09:14;22.40;59.10
74359;DHT22;62792;46.236;6.040;2022-11-15T08:14:16;22.60;59.00
74359;DHT22;62792;46.236;6.040;2022-11-15T08:19:19;22.70;59.30
74359;DHT22;62792;46.236;6.040;2022-11-15T08:24:23;22.70;58.90
74359;DHT22;62792;46.236;6.040;2022-11-15T08:29:26;22.90;59.20
74359;DHT22;62792;46.236;6.040;2022-11-15T08:34:29;22.80;58.80
74359;DHT22;62792;46.236;6.040;2022-11-15T08:39:33;22.90;58.80
74359;DHT22;62792;46.236;6.040;2022-11-15T08:44:36;22.90;58.40
74359;DHT22;62792;46.236;6.040;2022-11-15T08:49:38;22.80;58.70
74359;DHT22;62792;46.236;6.040;2022-11-15T08:54:42;22.80;60.20
74359;DHT22;62792;46.236;6.040;2022-11-15T08:59:45;22.80;59.60
74359;DHT22;62792;46.236;6.040;2022-11-15T09:04:48;22.70;59.80
74359;DHT22;62792;46.236;6.040;2022-11-15T09:09:52;22.90;59.90
74359;DHT22;62792;46.236;6.040;2022-11-15T09:14:55;22.70;59.90
74359;DHT22;62792;46.236;6.040;2022-11-15T09:19:57;22.80;59.60
74359;DHT22;62792;46.236;6.040;2022-11-15T09:25:02;22.80;59.40
74359;DHT22;62792;46.236;6.040;2022-11-15T09:30:11;22.70;59.90
74359;DHT22;62792;46.236;6.040;2022-11-15T09:35:14;22.70;60.20
74359;DHT22;62792;46.236;6.040;2022-11-15T09:40:18;22.60;60.00
74359;DHT22;62792;46.236;6.040;2022-11-15T09:45:26;22.60;60.20
74359;DHT22;62792;46.236;6.040;2022-11-15T09:50:32;22.70;60.00
74359;DHT22;62792;46.236;6.040;2022-11-15T09:55:40;22.70;59.70
74359;DHT22;62792;46.236;6.040;2022-11-15T10:00:47;22.70;59.60
74359;DHT22;62792;46.236;6.040;2022-11-15T10:05:54;22.70;59.60
74359;DHT22;62792;46.236;6.040;2022-11-15T10:10:59;22.70;59.90
74359;DHT22;62792;46.236;6.040;2022-11-15T10:16:30;22.60;60.20
74359;DHT22;62792;46.236;6.040;2022-11-15T10:21:37;22.60;60.30
74359;DHT22;62792;46.236;6.040;2022-11-15T10:26:47;22.60;60.40
74359;DHT22;62792;46.236;6.040;2022-11-15T10:31:50;22.60;60.30
74359;DHT22;62792;46.236;6.040;2022-11-15T10:36:56;22.60;60.40
74359;DHT22;62792;46.236;6.040;2022-11-15T10:42:06;22.70;60.80
74359;DHT22;62792;46.236;6.040;2022-11-15T10:47:23;22.70;60.20
74359;DHT22;62792;46.236;6.040;2022-11-15T10:52:26;22.80;59.80
74359;DHT22;62792;46.236;6.040;2022-11-15T10:57:31;22.70;60.00
74359;DHT22;62792;46.236;6.040;2022-11-15T11:02:35;22.80;60.30
74359;DHT22;62792;46.236;6.040;2022-11-15T11:07:38;22.80;60.00
74359;DHT22;62792;46.236;6.040;2022-11-15T11:12:43;22.90;59.90
74359;DHT22;62792;46.236;6.040;2022-11-15T11:17:51;23.00;59.50
74359;DHT22;62792;46.236;6.040;2022-11-15T11:23:01;23.20;59.30
74359;DHT22;62792;46.236;6.040;2022-11-15T11:28:14;22.90;60.10
74359;DHT22;62792;46.236;6.040;2022-11-15T11:33:21;23.00;60.30
74359;DHT22;62792;46.236;6.040;2022-11-15T11:38:32;23.00;60.20
74359;DHT22;62792;46.236;6.040;2022-11-15T11:43:39;23.00;59.80
74359;DHT22;62792;46.236;6.040;2022-11-15T11:48:44;23.10;59.70
74359;DHT22;62792;46.236;6.040;2022-11-15T11:53:54;23.10;60.10
74359;DHT22;62792;46.236;6.040;2022-11-15T11:59:00;23.10;60.20
74359;DHT22;62792;46.236;6.040;2022-11-15T12:04:04;23.30;60.20
74359;DHT22;62792;46.236;6.040;2022-11-15T12:09:11;23.20;59.60
74359;DHT22;62792;46.236;6.040;2022-11-15T12:14:21;23.20;59.80
74359;DHT22;62792;46.236;6.040;2022-11-15T12:19:25;23.30;59.60
74359;DHT22;62792;46.236;6.040;2022-11-15T12:24:29;23.20;59.50
74359;DHT22;62792;46.236;6.040;2022-11-15T12:29:37;23.30;59.60
74359;DHT22;62792;46.236;6.040;2022-11-15T12:34:44;23.30;59.60
74359;DHT22;62792;46.236;6.040;2022-11-15T12:40:04;23.30;59.70
74359;DHT22;62792;46.236;6.040;2022-11-15T12:55:48;23.20;60.20
74359;DHT22;62792;46.236;6.040;2022-11-15T13:01:51;23.20;59.70
74359;DHT22;62792;46.236;6.040;2022-11-15T13:06:39;23.20;59.80
74359;DHT22;62792;46.236;6.040;2022-11-15T13:11:44;23.20;60.20
74359;DHT22;62792;46.236;6.040;2022-11-15T13:16:47;23.20;60.10
74359;DHT22;62792;46.236;6.040;2022-11-15T13:21:52;23.10;60.40
74359;DHT22;62792;46.236;6.040;2022-11-15T13:27:14;23.00;60.20
74359;DHT22;62792;46.236;6.040;2022-11-15T13:32:18;23.10;60.50
74359;DHT22;62792;46.236;6.040;2022-11-15T13:37:28;23.00;60.40
74359;DHT22;62792;46.236;6.040;2022-11-15T13:42:35;22.90;61.00
74359;DHT22;62792;46.236;6.040;2022-11-15T13:47:47;22.90;60.70
74359;DHT22;62792;46.236;6.040;2022-11-15T13:52:53;22.90;61.30
74359;DHT22;62792;46.236;6.040;2022-11-15T13:58:01;22.80;61.30
74359;DHT22;62792;46.236;6.040;2022-11-15T14:03:11;22.90;61.60
74359;DHT22;62792;46.236;6.040;2022-11-15T14:08:26;22.90;61.10
74359;DHT22;62792;46.236;6.040;2022-11-15T14:13:30;22.80;61.20
74359;DHT22;62792;46.236;6.040;2022-11-15T14:18:44;22.80;61.00
74359;DHT22;62792;46.236;6.040;2022-11-15T14:23:47;22.80;61.60
74359;DHT22;62792;46.236;6.040;2022-11-15T14:28:51;22.80;61.00
74359;DHT22;62792;46.236;6.040;2022-11-15T14:33:54;22.70;61.70
74359;DHT22;62792;46.236;6.040;2022-11-15T14:38:57;22.70;61.50
74359;DHT22;62792;46.236;6.040;2022-11-15T14:44:01;22.70;61.70
74359;DHT22;62792;46.236;6.040;2022-11-15T14:49:13;22.80;61.30
74359;DHT22;62792;46.236;6.040;2022-11-15T14:54:17;22.60;61.30
74359;DHT22;62792;46.236;6.040;2022-11-15T14:59:21;22.40;61.50
74359;DHT22;62792;46.236;6.040;2022-11-15T15:04:24;22.10;61.70
74359;DHT22;62792;46.236;6.040;2022-11-15T15:09:27;22.10;61.70
74359;DHT22;62792;46.236;6.040;2022-11-15T15:14:31;22.10;62.30
74359;DHT22;62792;46.236;6.040;2022-11-15T15:19:34;22.30;61.90
74359;DHT22;62792;46.236;6.040;2022-11-15T15:24:36;22.40;61.80
74359;DHT22;62792;46.236;6.040;2022-11-15T15:29:41;22.60;61.40
74359;DHT22;62792;46.236;6.040;2022-11-15T15:34:43;22.70;61.00
74359;DHT22;62792;46.236;6.040;2022-11-15T15:39:46;22.60;61.10
74359;DHT22;62792;46.236;6.040;2022-11-15T15:44:50;22.70;61.30
74359;DHT22;62792;46.236;6.040;2022-11-15T15:49:53;22.80;61.00
74359;DHT22;62792;46.236;6.040;2022-11-15T15:54:56;22.70;61.60
74359;DHT22;62792;46.236;6.040;2022-11-15T16:00:04;22.60;61.50
74359;DHT22;62792;46.236;6.040;2022-11-15T16:05:07;22.80;61.30
74359;DHT22;62792;46.236;6.040;2022-11-15T16:10:15;22.70;61.30
74359;DHT22;62792;46.236;6.040;2022-11-15T16:15:21;22.60;61.30
74359;DHT22;62792;46.236;6.040;2022-11-15T16:20:29;22.70;61.20
74359;DHT22;62792;46.236;6.040;2022-11-15T16:25:32;22.70;61.40
74359;DHT22;62792;46.236;6.040;2022-11-15T16:30:38;22.70;61.30
74359;DHT22;62792;46.236;6.040;2022-11-15T16:35:40;22.70;61.40
74359;DHT22;62792;46.236;6.040;2022-11-15T16:40:43;22.90;61.20
74359;DHT22;62792;46.236;6.040;2022-11-15T16:45:57;22.80;61.50
74359;DHT22;62792;46.236;6.040;2022-11-15T16:50:59;22.80;60.80
74359;DHT22;62792;46.236;6.040;2022-11-15T16:56:12;22.80;61.10
74359;DHT22;62792;46.236;6.040;2022-11-15T17:01:18;22.70;61.10
74359;DHT22;62792;46.236;6.040;2022-11-15T17:06:22;22.70;61.20
74359;DHT22;62792;46.236;6.040;2022-11-15T17:11:24;22.70;61.00
74359;DHT22;62792;46.236;6.040;2022-11-15T17:16:29;22.70;61.20
74359;DHT22;62792;46.236;6.040;2022-11-15T17:21:31;22.80;61.30
74359;DHT22;62792;46.236;6.040;2022-11-15T17:26:34;22.90;60.70
74359;DHT22;62792;46.236;6.040;2022-11-15T17:31:42;23.10;60.40
74359;DHT22;62792;46.236;6.040;2022-11-15T17:36:45;23.20;60.20
74359;DHT22;62792;46.236;6.040;2022-11-15T17:41:48;23.20;60.00
74359;DHT22;62792;46.236;6.040;2022-11-15T17:46:52;23.20;59.90
74359;DHT22;62792;46.236;6.040;2022-11-15T17:51:54;23.10;60.00
74359;DHT22;62792;46.236;6.040;2022-11-15T17:56:57;23.00;59.90
74359;DHT22;62792;46.236;6.040;2022-11-15T18:02:01;23.00;60.10
74359;DHT22;62792;46.236;6.040;2022-11-15T18:07:04;23.00;60.10
74359;DHT22;62792;46.236;6.040;2022-11-15T18:12:06;23.00;60.20
74359;DHT22;62792;46.236;6.040;2022-11-15T18:17:11;23.00;60.20
74359;DHT22;62792;46.236;6.040;2022-11-15T18:22:13;23.00;59.90
74359;DHT22;62792;46.236;6.040;2022-11-15T18:27:16;22.90;60.00
74359;DHT22;62792;46.236;6.040;2022-11-15T18:32:20;22.90;60.00
74359;DHT22;62792;46.236;6.040;2022-11-15T18:37:23;22.90;60.10
74359;DHT22;62792;46.236;6.040;2022-11-15T18:42:25;22.90;60.10
74359;DHT22;62792;46.236;6.040;2022-11-15T18:47:32;22.80;60.10
74359;DHT22;62792;46.236;6.040;2022-11-15T18:52:35;22.80;60.20
74359;DHT22;62792;46.236;6.040;2022-11-15T18:57:38;22.70;60.30
74359;DHT22;62792;46.236;6.040;2022-11-15T19:02:42;22.80;60.20
74359;DHT22;62792;46.236;6.040;2022-11-15T19:07:46;22.80;60.10
74359;DHT22;62792;46.236;6.040;2022-11-15T19:12:48;22.70;60.30
74359;DHT22;62792;46.236;6.040;2022-11-15T19:17:52;22.70;60.20
74359;DHT22;62792;46.236;6.040;2022-11-15T19:22:55;22.60;60.30
74359;DHT22;62792;46.236;6.040;2022-11-15T19:27:58;22.70;60.20
74359;DHT22;62792;46.236;6.040;2022-11-15T19:33:02;22.70;60.20
74359;DHT22;62792;46.236;6.040;2022-11-15T19:38:05;22.70;60.20
74359;DHT22;62792;46.236;6.040;2022-11-15T19:43:07;22.60;60.10
74359;DHT22;62792;46.236;6.040;2022-11-15T19:48:11;22.70;60.10
74359;DHT22;62792;46.236;6.040;2022-11-15T19:53:14;22.60;60.20
74359;DHT22;62792;46.236;6.040;2022-11-15T19:58:17;22.50;60.30
74359;DHT22;62792;46.236;6.040;2022-11-15T20:03:21;22.50;60.40
74359;DHT22;62792;46.236;6.040;2022-11-15T20:08:24;22.60;60.30
74359;DHT22;62792;46.236;6.040;2022-11-15T20:13:26;22.60;60.30
74359;DHT22;62792;46.236;6.040;2022-11-15T20:18:30;22.60;60.30
74359;DHT22;62792;46.236;6.040;2022-11-15T20:23:33;22.50;60.10
74359;DHT22;62792;46.236;6.040;2022-11-15T20:28:36;22.50;60.20
74359;DHT22;62792;46.236;6.040;2022-11-15T20:33:41;22.50;60.00
74359;DHT22;62792;46.236;6.040;2022-11-15T20:38:43;22.50;60.30
74359;DHT22;62792;46.236;6.040;2022-11-15T20:43:46;22.50;60.10
74359;DHT22;62792;46.236;6.040;2022-11-15T20:48:50;22.50;60.30
74359;DHT22;62792;46.236;6.040;2022-11-15T20:53:53;22.50;60.40
74359;DHT22;62792;46.236;6.040;2022-11-15T20:58:55;22.50;60.20
74359;DHT22;62792;46.236;6.040;2022-11-15T21:04:00;22.40;60.30
74359;DHT22;62792;46.236;6.040;2022-11-15T21:09:03;22.50;60.00
74359;DHT22;62792;46.236;6.040;2022-11-15T21:14:23;22.40;60.10
74359;DHT22;62792;46.236;6.040;2022-11-15T21:19:27;22.40;60.00
74359;DHT22;62792;46.236;6.040;2022-11-15T21:24:37;22.40;60.00
74359;DHT22;62792;46.236;6.040;2022-11-15T21:29:39;22.50;60.30
74359;DHT22;62792;46.236;6.040;2022-11-15T21:34:47;22.40;60.20
74359;DHT22;62792;46.236;6.040;2022-11-15T21:39:50;22.40;60.10
74359;DHT22;62792;46.236;6.040;2022-11-15T21:44:52;22.50;60.20
74359;DHT22;62792;46.236;6.040;2022-11-15T21:49:58;22.40;60.20
74359;DHT22;62792;46.236;6.040;2022-11-15T21:55:01;22.40;60.40
74359;DHT22;62792;46.236;6.040;2022-11-15T22:00:04;22.40;60.50
74359;DHT22;62792;46.236;6.040;2022-11-15T22:05:26;22.40;60.10
74359;DHT22;62792;46.236;6.040;2022-11-15T22:10:29;22.40;60.00
74359;DHT22;62792;46.236;6.040;2022-11-15T22:15:31;22.40;60.20
74359;DHT22;62792;46.236;6.040;2022-11-15T22:20:35;22.40;59.90
74359;DHT22;62792;46.236;6.040;2022-11-15T22:25:48;22.40;60.10
74359;DHT22;62792;46.236;6.040;2022-11-15T22:30:52;22.40;60.00
74359;DHT22;62792;46.236;6.040;2022-11-15T22:35:56;22.40;60.20
74359;DHT22;62792;46.236;6.040;2022-11-15T22:40:59;22.40;60.00
74359;DHT22;62792;46.236;6.040;2022-11-15T22:46:03;22.40;60.00
74359;DHT22;62792;46.236;6.040;2022-11-15T22:51:07;22.40;60.00
74359;DHT22;62792;46.236;6.040;2022-11-15T22:56:20;22.40;60.00
74359;DHT22;62792;46.236;6.040;2022-11-15T23:01:23;22.40;60.20
74359;DHT22;62792;46.236;6.040;2022-11-15T23:06:27;22.40;60.30
74359;DHT22;62792;46.236;6.040;2022-11-15T23:11:30;22.40;60.00
74359;DHT22;62792;46.236;6.040;2022-11-15T23:16:50;22.40;59.90
74359;DHT22;62792;46.236;6.040;2022-11-15T23:21:54;22.40;60.00
74359;DHT22;62792;46.236;6.040;2022-11-15T23:27:15;22.30;60.00
74359;DHT22;62792;46.236;6.040;2022-11-15T23:32:20;22.40;60.00
74359;DHT22;62792;46.236;6.040;2022-11-15T23:37:42;22.30;60.00
74359;DHT22;62792;46.236;6.040;2022-11-15T23:42:45;22.40;59.90
74359;DHT22;62792;46.236;6.040;2022-11-15T23:47:48;22.40;60.00
74359;DHT22;62792;46.236;6.040;2022-11-15T23:52:52;22.30;60.20
74359;DHT22;62792;46.236;6.040;2022-11-15T23:58:05;22.40;60.00
